Terminal Aerodrome Forecast
Issued by NWS Nashville, TN

Home | Current Version | Previous Version | Text Only | Print | Product List | Glossary On
Versions: 1 2 3 4 5 6 7 8 9 10 11 12 13 14 15 16 17 18 19 20 21 22 23 24 25 26
761
FTUS44 KOHX 062320
TAFBNA
TAF
KBNA 062320Z 0700/0724 34005KT P6SM OVC050
     FM070500 01005KT P6SM OVC020
     FM071700 04006KT P6SM BKN030
     FM072100 06004KT P6SM SKC=

USA.gov is the U.S. government's official web portal to all federal, state and local government web resources and services.